Time;durP1;ratioP1;P1;durP2;ratioP2;P2;SDS_P1;SDS_P2;PMS_P1;PMS_P2;Temp;Humidity;BMP_temperature;BMP_pressure;BME280_temperature;BME280_humidity;BME280_pressure;Samples;Min_cycle;Max_cycle;Signal;HPM_P1;HPM_P2
2023/03/30 00:00:17;;;;;;;;;;;;;;;;;;2206761;59;1938;-19
2023/03/30 00:02:49;;;;;;;;;;;;;;;;;;2211097;67;1993;-19
2023/03/30 00:05:22;;;;;;;;;;;;;;;;;;2211061;67;1102;-19
2023/03/30 00:07:52;;;;;;;;;;;;;;;;;;2210871;67;1857;-20
2023/03/30 00:10:23;;;;;;;;;;;;;;;;;;2206772;67;1314;-19
2023/03/30 00:12:53;;;;;;;;;;;;;;;;;;2209806;67;1411;-19
2023/03/30 00:15:24;;;;;;;;;;;;;;;;;;2207180;67;1319;-19
2023/03/30 00:17:54;;;;;;;;;;;;;;;;;;2210593;67;1401;-18
2023/03/30 00:20:24;;;;;;;;;;;;;;;;;;2207351;67;1934;-19
2023/03/30 00:22:55;;;;;;;;;;;;;;;;;;2209672;67;1419;-18
2023/03/30 00:25:27;;;;;;;;;;;;;;;;;;2210369;67;1767;-19
2023/03/30 00:27:58;;;;;;;;;;;;;;;;;;2211210;67;1310;-18
2023/03/30 00:30:28;;;;;;;;;;;;;;;;;;2210705;59;1370;-20
2023/03/30 00:32:58;;;;;;;;;;;;;;;;;;2209860;67;1672;-20
2023/03/30 00:35:31;;;;;;;;;;;;;;;;;;2210073;67;2126;-19
2023/03/30 00:38:02;;;;;;;;;;;;;;;;;;2208175;67;1743;-20
2023/03/30 00:40:33;;;;;;;;;;;;;;;;;;2211019;67;1929;-20
2023/03/30 00:43:05;;;;;;;;;;;;;;;;;;2205172;59;1756;-20
2023/03/30 00:45:35;;;;;;;;;;;;;;;;;;2209269;67;1110;-20
2023/03/30 00:48:14;;;;;;;;;;;;;;;;;;2209565;67;2053;-20
2023/03/30 00:51:14;;;;;;;;;;;;;;;;;;2209727;67;1245;-20
2023/03/30 00:53:46;;;;;;;;;;;;;;;;;;2207722;67;2087;-20
2023/03/30 00:56:21;;;;;;;;;;;;;;;;;;2209783;67;1352;-20
2023/03/30 00:58:53;;;;;;;;;;;;;;;;;;2210400;67;1925;-20
2023/03/30 01:01:27;;;;;;;;;;;;;;;;;;2211004;67;1200;-19
2023/03/30 01:04:01;;;;;;;;;;;;;;;;;;2210374;66;1754;-20
2023/03/30 01:06:32;;;;;;;;;;;;;;;;;;2209763;67;1265;-20
2023/03/30 01:09:03;;;;;;;;;;;;;;;;;;2209857;67;1216;-20
2023/03/30 01:11:33;;;;;;;;;;;;;;;;;;2209871;67;1310;-20
2023/03/30 01:14:05;;;;;;;;;;;;;;;;;;2211132;67;1658;-18
2023/03/30 01:16:41;;;;;;;;;;;;;;;;;;2210366;67;1443;-18
2023/03/30 01:19:31;;;;;;;;;;;;;;;;;;2209783;67;1935;-19
2023/03/30 01:22:18;;;;;;;;;;;;;;;;;;2211016;59;1414;-19
2023/03/30 01:24:57;;;;;;;;;;;;;;;;;;2206706;67;1752;-19
2023/03/30 01:27:47;;;;;;;;;;;;;;;;;;2207858;67;1224;-19
2023/03/30 01:30:25;;;;;;;;;;;;;;;;;;2205128;67;1847;-19
2023/03/30 01:33:08;;;;;;;;;;;;;;;;;;2210735;67;1535;-19
2023/03/30 01:35:57;;;;;;;;;;;;;;;;;;2210742;67;1313;-19
2023/03/30 01:38:31;;;;;;;;;;;;;;;;;;2207948;67;1585;-19
2023/03/30 01:41:18;;;;;;;;;;;;;;;;;;2205284;67;1946;-19
2023/03/30 01:43:49;;;;;;;;;;;;;;;;;;2207322;67;1673;-19
2023/03/30 01:46:23;;;;;;;;;;;;;;;;;;2211236;67;1851;-19
2023/03/30 01:48:59;;;;;;;;;;;;;;;;;;2210473;67;1312;-19
2023/03/30 01:51:34;;;;;;;;;;;;;;;;;;2210896;67;1802;-19
2023/03/30 01:54:09;;;;;;;;;;;;;;;;;;2209261;67;1314;-19
2023/03/30 01:56:45;;;;;;;;;;;;;;;;;;2209297;67;1701;-19
2023/03/30 01:59:24;;;;;;;;;;;;;;;;;;2207385;59;1937;-19
2023/03/30 02:02:03;;;;;;;;;;;;;;;;;;2206104;67;1540;-19
2023/03/30 02:04:35;;;;;;;;;;;;;;;;;;2208771;67;1687;-19
2023/03/30 02:07:31;;;;;;;;;;;;;;;;;;2206076;67;1427;-19
2023/03/30 02:10:03;;;;;;;;;;;;;;;;;;2208728;67;1928;-19
2023/03/30 02:12:34;;;;;;;;;;;;;;;;;;2210325;67;1789;-19
2023/03/30 02:15:09;;;;;;;;;;;;;;;;;;2208986;67;1200;-19
2023/03/30 02:17:41;;;;;;;;;;;;;;;;;;2209143;59;1179;-19
2023/03/30 02:20:11;;;;;;;;;;;;;;;;;;2207211;67;1939;-19
2023/03/30 02:22:42;;;;;;;;;;;;;;;;;;2211109;67;1376;-19
2023/03/30 02:25:12;;;;;;;;;;;;;;;;;;2206622;67;2054;-19
2023/03/30 02:27:42;;;;;;;;;;;;;;;;;;2209581;67;1176;-19
2023/03/30 02:30:13;;;;;;;;;;;;;;;;;;2207045;59;1903;-19
2023/03/30 02:32:45;;;;;;;;;;;;;;;;;;2206956;67;1783;-19
2023/03/30 02:35:31;;;;;;;;;;;;;;;;;;2207653;67;1779;-19
2023/03/30 02:38:20;;;;;;;;;;;;;;;;;;2206338;67;1676;-19
2023/03/30 02:41:02;;;;;;;;;;;;;;;;;;2209939;67;1926;-19
2023/03/30 02:44:11;;;;;;;;;;;;;;;;;;2210012;67;1235;-19
2023/03/30 02:46:50;;;;;;;;;;;;;;;;;;2194673;59;1730;-20
2023/03/30 02:49:30;;;;;;;;;;;;;;;;;;2194284;67;1830;-20
2023/03/30 02:52:00;;;;;;;;;;;;;;;;;;2202023;59;1371;-20
2023/03/30 02:54:48;;;;;;;;;;;;;;;;;;2206602;67;1550;-20
2023/03/30 02:57:28;;;;;;;;;;;;;;;;;;2211455;67;1663;-19
2023/03/30 03:00:09;;;;;;;;;;;;;;;;;;2208933;67;1983;-20
2023/03/30 03:02:42;;;;;;;;;;;;;;;;;;2203085;67;1687;-20
2023/03/30 03:05:14;;;;;;;;;;;;;;;;;;2210582;67;1341;-20
2023/03/30 03:07:48;;;;;;;;;;;;;;;;;;2209631;59;2216;-20
2023/03/30 03:10:18;;;;;;;;;;;;;;;;;;2209736;67;2096;-22
2023/03/30 03:12:49;;;;;;;;;;;;;;;;;;2209891;67;1391;-22
2023/03/30 03:15:19;;;;;;;;;;;;;;;;;;2210442;59;1105;-21
2023/03/30 03:17:50;;;;;;;;;;;;;;;;;;2211357;67;1336;-22
2023/03/30 03:20:20;;;;;;;;;;;;;;;;;;2210403;67;2318;-21
2023/03/30 03:22:51;;;;;;;;;;;;;;;;;;2210388;67;1269;-21
2023/03/30 03:25:21;;;;;;;;;;;;;;;;;;2208763;67;1208;-20
2023/03/30 03:27:51;;;;;;;;;;;;;;;;;;2209916;59;2090;-21
2023/03/30 03:30:22;;;;;;;;;;;;;;;;;;2209930;59;1120;-21
2023/03/30 03:32:52;;;;;;;;;;;;;;;;;;2209713;67;1720;-21
2023/03/30 03:35:23;;;;;;;;;;;;;;;;;;2204904;67;1098;-19
2023/03/30 03:37:53;;;;;;;;;;;;;;;;;;2209452;67;1295;-19
2023/03/30 03:40:23;;;;;;;;;;;;;;;;;;2209908;67;1945;-20
2023/03/30 03:42:54;;;;;;;;;;;;;;;;;;2210349;67;1307;-20
2023/03/30 03:45:24;;;;;;;;;;;;;;;;;;2209260;67;1384;-19
2023/03/30 03:47:54;;;;;;;;;;;;;;;;;;2208804;67;1706;-19
2023/03/30 03:50:25;;;;;;;;;;;;;;;;;;2209380;67;1135;-20
2023/03/30 03:52:55;;;;;;;;;;;;;;;;;;2210172;67;2178;-19
2023/03/30 03:55:27;;;;;;;;;;;;;;;;;;2206444;67;1956;-19
2023/03/30 03:57:57;;;;;;;;;;;;;;;;;;2210302;67;1116;-19
2023/03/30 04:00:28;;;;;;;;;;;;;;;;;;2209663;59;1932;-19
2023/03/30 04:02:59;;;;;;;;;;;;;;;;;;2203975;67;2281;-19
2023/03/30 04:05:29;;;;;;;;;;;;;;;;;;2210609;67;1644;-19
2023/03/30 04:08:00;;;;;;;;;;;;;;;;;;2211400;67;1671;-19
2023/03/30 04:10:30;;;;;;;;;;;;;;;;;;2208809;67;1458;-19
2023/03/30 04:13:00;;;;;;;;;;;;;;;;;;2209073;67;1476;-20
2023/03/30 04:15:30;;;;;;;;;;;;;;;;;;2210091;67;1120;-19
2023/03/30 04:18:01;;;;;;;;;;;;;;;;;;2210225;67;1913;-19
2023/03/30 04:20:31;;;;;;;;;;;;;;;;;;2209074;67;1969;-19
2023/03/30 04:23:01;;;;;;;;;;;;;;;;;;2209513;67;1311;-19
2023/03/30 04:28:23;;;;;;;;;;;;;;;;;;2214177;59;2008;-20
2023/03/30 04:30:57;;;;;;;;;;;;;;;;;;2206752;59;1357;-19
2023/03/30 04:33:28;;;;;;;;;;;;;;;;;;2207659;67;1246;-19
2023/03/30 04:35:58;;;;;;;;;;;;;;;;;;2211732;67;1690;-20
2023/03/30 04:38:29;;;;;;;;;;;;;;;;;;2211788;67;1703;-20
2023/03/30 04:40:59;;;;;;;;;;;;;;;;;;2211785;67;1995;-20
2023/03/30 04:43:30;;;;;;;;;;;;;;;;;;2212370;67;1768;-20
2023/03/30 04:46:00;;;;;;;;;;;;;;;;;;2212648;67;1455;-18
2023/03/30 04:48:30;;;;;;;;;;;;;;;;;;2212385;67;1348;-18
2023/03/30 04:51:01;;;;;;;;;;;;;;;;;;2212370;67;1821;-19
2023/03/30 04:53:31;;;;;;;;;;;;;;;;;;2212281;67;1478;-18
2023/03/30 04:56:01;;;;;;;;;;;;;;;;;;2208601;59;1325;-18
2023/03/30 04:58:31;;;;;;;;;;;;;;;;;;2211920;67;1280;-19
2023/03/30 05:01:02;;;;;;;;;;;;;;;;;;2212156;67;1987;-19
2023/03/30 05:03:32;;;;;;;;;;;;;;;;;;2215503;53;3626;-21
2023/03/30 05:06:03;;;;;;;;;;;;;;;;;;2214876;66;1245;-20
2023/03/30 05:08:34;;;;;;;;;;;;;;;;;;2214176;67;1628;-21
2023/03/30 05:11:05;;;;;;;;;;;;;;;;;;2215416;67;1093;-20
2023/03/30 05:13:35;;;;;;;;;;;;;;;;;;2214339;67;1252;-21
2023/03/30 05:16:06;;;;;;;;;;;;;;;;;;2215457;59;2201;-21
2023/03/30 05:18:38;;;;;;;;;;;;;;;;;;2215487;66;1468;-21
2023/03/30 05:21:08;;;;;;;;;;;;;;;;;;2215997;66;1912;-21
2023/03/30 05:23:38;;;;;;;;;;;;;;;;;;2214565;59;1296;-20
2023/03/30 05:26:09;;;;;;;;;;;;;;;;;;2215093;59;1882;-20
2023/03/30 05:28:41;;;;;;;;;;;;;;;;;;2216474;59;1782;-21
2023/03/30 05:31:12;;;;;;;;;;;;;;;;;;2217951;66;1336;-35
2023/03/30 05:33:42;;;;;;;;;;;;;;;;;;2216104;66;1241;-21
2023/03/30 05:36:12;;;;;;;;;;;;;;;;;;2215967;67;1148;-20
2023/03/30 05:38:43;;;;;;;;;;;;;;;;;;2214630;67;1658;-21
2023/03/30 05:41:13;;;;;;;;;;;;;;;;;;2215394;67;1948;-21
2023/03/30 05:43:47;;;;;;;;;;;;;;;;;;2215542;67;1691;-20
2023/03/30 05:46:18;;;;;;;;;;;;;;;;;;2214066;67;1145;-21
2023/03/30 05:48:49;;;;;;;;;;;;;;;;;;2215655;59;1658;-21
2023/03/30 05:51:19;;;;;;;;;;;;;;;;;;2215658;67;1756;-21
2023/03/30 05:53:49;;;;;;;;;;;;;;;;;;2215710;67;1765;-20
2023/03/30 05:56:20;;;;;;;;;;;;;;;;;;2215224;67;1142;-20
2023/03/30 05:58:50;;;;;;;;;;;;;;;;;;2214069;67;1879;-20
2023/03/30 06:01:21;;;;;;;;;;;;;;;;;;2215291;67;1951;-20
2023/03/30 06:03:51;;;;;;;;;;;;;;;;;;2214197;59;1730;-20
2023/03/30 06:06:22;;;;;;;;;;;;;;;;;;2213555;67;1249;-20
2023/03/30 06:08:52;;;;;;;;;;;;;;;;;;2214414;67;1843;-20
2023/03/30 06:11:23;;;;;;;;;;;;;;;;;;2214904;67;1770;-30
2023/03/30 06:13:53;;;;;;;;;;;;;;;;;;2214493;67;1223;-20
2023/03/30 06:16:24;;;;;;;;;;;;;;;;;;2215343;67;1134;-20
2023/03/30 06:18:54;;;;;;;;;;;;;;;;;;2214726;67;1986;-20
2023/03/30 06:21:25;;;;;;;;;;;;;;;;;;2214476;67;1771;-20
2023/03/30 06:23:55;;;;;;;;;;;;;;;;;;2213801;67;1447;-20
2023/03/30 06:26:25;;;;;;;;;;;;;;;;;;2212718;59;1368;-20
2023/03/30 06:28:56;;;;;;;;;;;;;;;;;;2214133;67;1653;-20
2023/03/30 06:31:26;;;;;;;;;;;;;;;;;;2213945;67;1167;-20
2023/03/30 06:33:56;;;;;;;;;;;;;;;;;;2214311;67;1224;-20
2023/03/30 06:36:27;;;;;;;;;;;;;;;;;;2214501;67;1530;-20
2023/03/30 06:38:57;;;;;;;;;;;;;;;;;;2215328;67;1983;-20
2023/03/30 06:41:27;;;;;;;;;;;;;;;;;;2214696;67;1104;-20
2023/03/30 06:43:58;;;;;;;;;;;;;;;;;;2214487;67;1465;-20
2023/03/30 06:46:28;;;;;;;;;;;;;;;;;;2214768;67;1245;-20
2023/03/30 06:48:58;;;;;;;;;;;;;;;;;;2215478;67;1236;-20
2023/03/30 06:51:29;;;;;;;;;;;;;;;;;;2214967;67;1900;-22
2023/03/30 06:54:00;;;;;;;;;;;;;;;;;;2214461;67;1909;-20
2023/03/30 06:56:30;;;;;;;;;;;;;;;;;;2214939;67;1151;-20
2023/03/30 06:59:01;;;;;;;;;;;;;;;;;;2215194;67;1940;-20
2023/03/30 07:01:32;;;;;;;;;;;;;;;;;;2214605;67;1109;-20
2023/03/30 07:04:03;;;;;;;;;;;;;;;;;;2213936;59;1797;-20
2023/03/30 07:06:34;;;;;;;;;;;;;;;;;;2214094;67;1660;-20
2023/03/30 07:09:05;;;;;;;;;;;;;;;;;;2215027;67;1264;-20
2023/03/30 07:11:36;;;;;;;;;;;;;;;;;;2215191;67;1592;-20
2023/03/30 07:14:08;;;;;;;;;;;;;;;;;;2214778;59;1849;-20
2023/03/30 07:16:39;;;;;;;;;;;;;;;;;;2215926;66;1734;-20
2023/03/30 07:19:09;;;;;;;;;;;;;;;;;;2215407;67;1941;-20
2023/03/30 07:21:39;;;;;;;;;;;;;;;;;;2214808;67;1815;-20
2023/03/30 07:24:10;;;;;;;;;;;;;;;;;;2215139;67;1624;-20
2023/03/30 07:26:40;;;;;;;;;;;;;;;;;;2215753;67;1593;-20
2023/03/30 07:29:10;;;;;;;;;;;;;;;;;;2214716;67;1187;-20
2023/03/30 07:31:41;;;;;;;;;;;;;;;;;;2214602;67;1454;-20
2023/03/30 07:34:11;;;;;;;;;;;;;;;;;;2215178;67;1257;-20
2023/03/30 07:36:41;;;;;;;;;;;;;;;;;;2215392;67;1234;-20
2023/03/30 07:39:12;;;;;;;;;;;;;;;;;;2213658;67;1933;-20
2023/03/30 07:41:42;;;;;;;;;;;;;;;;;;2214864;67;2125;-21
2023/03/30 07:44:12;;;;;;;;;;;;;;;;;;2215033;67;2178;-20
2023/03/30 07:46:42;;;;;;;;;;;;;;;;;;2215628;67;1791;-20
2023/03/30 07:49:13;;;;;;;;;;;;;;;;;;2214740;67;1201;-20
2023/03/30 07:51:44;;;;;;;;;;;;;;;;;;2213536;67;1528;-20
2023/03/30 07:54:14;;;;;;;;;;;;;;;;;;2214884;67;1716;-20
2023/03/30 07:56:53;;;;;;;;;;;;;;;;;;2215378;67;1195;-20
2023/03/30 07:59:24;;;;;;;;;;;;;;;;;;2213724;67;1908;-20
2023/03/30 08:01:55;;;;;;;;;;;;;;;;;;2215050;67;1739;-20
2023/03/30 08:04:26;;;;;;;;;;;;;;;;;;2215598;59;2058;-20
2023/03/30 08:06:56;;;;;;;;;;;;;;;;;;2214499;66;1259;-20
2023/03/30 08:09:27;;;;;;;;;;;;;;;;;;2213951;67;1240;-20
2023/03/30 08:11:57;;;;;;;;;;;;;;;;;;2215745;67;1122;-20
2023/03/30 08:14:28;;;;;;;;;;;;;;;;;;2214349;67;1803;-20
2023/03/30 08:16:58;;;;;;;;;;;;;;;;;;2214678;67;2544;-20
2023/03/30 08:19:31;;;;;;;;;;;;;;;;;;2212944;67;1941;-20
2023/03/30 08:22:02;;;;;;;;;;;;;;;;;;2214726;59;1778;-20
2023/03/30 08:24:32;;;;;;;;;;;;;;;;;;2215930;59;1707;-20
2023/03/30 08:27:02;;;;;;;;;;;;;;;;;;2215755;67;1121;-20
2023/03/30 08:29:33;;;;;;;;;;;;;;;;;;2215465;67;1693;-20
2023/03/30 08:32:03;;;;;;;;;;;;;;;;;;2215504;67;1671;-20
2023/03/30 08:34:33;;;;;;;;;;;;;;;;;;2215117;67;1163;-19
2023/03/30 08:37:05;;;;;;;;;;;;;;;;;;2215064;67;1384;-18
2023/03/30 08:39:36;;;;;;;;;;;;;;;;;;2215844;67;1955;-18
2023/03/30 08:42:32;;;;;;;;;;;;;;;;;;2214431;67;1616;-18
2023/03/30 08:45:04;;;;;;;;;;;;;;;;;;2214654;67;1773;-18
2023/03/30 08:47:37;;;;;;;;;;;;;;;;;;2215149;67;1219;-18
2023/03/30 08:50:12;;;;;;;;;;;;;;;;;;2215348;67;1152;-18
2023/03/30 08:52:43;;;;;;;;;;;;;;;;;;2215756;67;1135;-18
2023/03/30 08:55:29;;;;;;;;;;;;;;;;;;2215973;67;1457;-18
2023/03/30 08:58:14;;;;;;;;;;;;;;;;;;2215569;67;1141;-18
2023/03/30 09:01:07;;;;;;;;;;;;;;;;;;2214035;67;1906;-18
2023/03/30 09:03:39;;;;;;;;;;;;;;;;;;2215966;67;1721;-18
2023/03/30 09:06:29;;;;;;;;;;;;;;;;;;2215485;59;1687;-18
2023/03/30 09:09:00;;;;;;;;;;;;;;;;;;2215390;59;1349;-18
2023/03/30 09:11:32;;;;;;;;;;;;;;;;;;2214915;59;1518;-18
2023/03/30 09:14:04;;;;;;;;;;;;;;;;;;2214744;67;1602;-18
2023/03/30 09:16:45;;;;;;;;;;;;;;;;;;2215607;67;1154;-18
2023/03/30 09:19:19;;;;;;;;;;;;;;;;;;2214501;59;1917;-18
2023/03/30 09:21:52;;;;;;;;;;;;;;;;;;2215280;67;1291;-18
2023/03/30 09:24:24;;;;;;;;;;;;;;;;;;2214999;67;1720;-18
2023/03/30 09:27:01;;;;;;;;;;;;;;;;;;2215745;59;1319;-18
2023/03/30 09:29:38;;;;;;;;;;;;;;;;;;2212951;67;1115;-18
2023/03/30 09:32:11;;;;;;;;;;;;;;;;;;2215448;67;1117;-18
2023/03/30 09:34:45;;;;;;;;;;;;;;;;;;2213605;67;1264;-18
2023/03/30 09:37:17;;;;;;;;;;;;;;;;;;2214569;67;1895;-18
2023/03/30 09:39:51;;;;;;;;;;;;;;;;;;2214318;67;1929;-18
2023/03/30 09:42:40;;;;;;;;;;;;;;;;;;2214946;67;1684;-17
2023/03/30 09:45:14;;;;;;;;;;;;;;;;;;2215625;67;1481;-18
2023/03/30 09:47:45;;;;;;;;;;;;;;;;;;2215723;67;1140;-18
2023/03/30 09:50:17;;;;;;;;;;;;;;;;;;2214768;67;1298;-18
2023/03/30 09:52:57;;;;;;;;;;;;;;;;;;2215600;67;1368;-18
2023/03/30 09:55:32;;;;;;;;;;;;;;;;;;2213525;67;1112;-28
2023/03/30 09:58:08;;;;;;;;;;;;;;;;;;2215388;67;1293;-18
2023/03/30 10:00:39;;;;;;;;;;;;;;;;;;2211102;67;2191;-18
2023/03/30 10:03:18;;;;;;;;;;;;;;;;;;2215506;67;1133;-18
2023/03/30 10:06:02;;;;;;;;;;;;;;;;;;2213845;59;1409;-17
2023/03/30 10:08:36;;;;;;;;;;;;;;;;;;2215830;67;1409;-18
2023/03/30 10:11:07;;;;;;;;;;;;;;;;;;2214992;59;1824;-18
2023/03/30 10:13:41;;;;;;;;;;;;;;;;;;2215714;67;1341;-17
2023/03/30 10:16:25;;;;;;;;;;;;;;;;;;2215158;67;1238;-17
2023/03/30 10:19:00;;;;;;;;;;;;;;;;;;2213927;67;1814;-18
2023/03/30 10:21:35;;;;;;;;;;;;;;;;;;2215201;67;2305;-18
2023/03/30 10:24:17;;;;;;;;;;;;;;;;;;2213631;67;1123;-18
2023/03/30 10:26:50;;;;;;;;;;;;;;;;;;2214787;59;1301;-19
2023/03/30 10:29:22;;;;;;;;;;;;;;;;;;2211839;67;1696;-18
2023/03/30 10:32:00;;;;;;;;;;;;;;;;;;2215134;67;1145;-17
2023/03/30 10:34:39;;;;;;;;;;;;;;;;;;2214042;67;1550;-18
2023/03/30 10:37:15;;;;;;;;;;;;;;;;;;2214892;67;1834;-17
2023/03/30 10:39:46;;;;;;;;;;;;;;;;;;2213662;67;1945;-18
2023/03/30 10:42:19;;;;;;;;;;;;;;;;;;2214314;66;1125;-18
2023/03/30 10:44:52;;;;;;;;;;;;;;;;;;2214236;67;1392;-18
2023/03/30 10:47:49;;;;;;;;;;;;;;;;;;2214346;59;1765;-19
2023/03/30 10:50:29;;;;;;;;;;;;;;;;;;2215089;67;1434;-20
2023/03/30 10:53:05;;;;;;;;;;;;;;;;;;2214994;67;1473;-20
2023/03/30 10:55:46;;;;;;;;;;;;;;;;;;2215455;67;1309;-19
2023/03/30 10:58:19;;;;;;;;;;;;;;;;;;2214459;59;2009;-19
2023/03/30 11:01:01;;;;;;;;;;;;;;;;;;2216165;66;1979;-20
2023/03/30 11:03:32;;;;;;;;;;;;;;;;;;2216805;53;2570;-69
2023/03/30 11:06:08;;;;;;;;;;;;;;;;;;2212113;66;1744;-69
2023/03/30 11:08:41;;;;;;;;;;;;;;;;;;2211690;66;1277;-68
2023/03/30 11:11:21;;;;;;;;;;;;;;;;;;2212698;67;1210;-69
2023/03/30 11:13:56;;;;;;;;;;;;;;;;;;2207081;67;1414;-69
2023/03/30 11:16:46;;;;;;;;;;;;;;;;;;2208329;67;1148;-69
2023/03/30 11:19:23;;;;;;;;;;;;;;;;;;2208305;67;1992;-69
2023/03/30 11:21:59;;;;;;;;;;;;;;;;;;2211095;53;2046;-20
2023/03/30 11:24:29;;;;;;;;;;;;;;;;;;2209773;67;1667;-20
2023/03/30 11:27:08;;;;;;;;;;;;;;;;;;2209055;59;1468;-20
2023/03/30 11:29:47;;;;;;;;;;;;;;;;;;2208976;67;1508;-20
2023/03/30 11:32:23;;;;;;;;;;;;;;;;;;2209347;67;1189;-20
2023/03/30 11:34:54;;;;;;;;;;;;;;;;;;2209081;67;1221;-20
2023/03/30 11:37:48;;;;;;;;;;;;;;;;;;2208832;67;1127;-20
2023/03/30 11:40:28;;;;;;;;;;;;;;;;;;2204200;67;2000;-19
2023/03/30 11:43:00;;;;;;;;;;;;;;;;;;2208864;67;1277;-19
2023/03/30 11:45:33;;;;;;;;;;;;;;;;;;2208787;67;1728;-20
2023/03/30 11:48:29;;;;;;;;;;;;;;;;;;2205806;67;2262;-20
2023/03/30 11:51:32;;;;;;;;;;;;;;;;;;2208391;59;1558;-20
2023/03/30 11:54:21;;;;;;;;;;;;;;;;;;2202646;67;1375;-20
2023/03/30 11:57:09;;;;;;;;;;;;;;;;;;2209106;67;1326;-20
2023/03/30 12:00:08;;;;;;;;;;;;;;;;;;2209339;67;1935;-20
2023/03/30 12:02:41;;;;;;;;;;;;;;;;;;2206730;67;1386;-20
2023/03/30 12:05:20;;;;;;;;;;;;;;;;;;2206828;67;1856;-20
2023/03/30 12:08:02;;;;;;;;;;;;;;;;;;2208878;67;2101;-20
2023/03/30 12:10:39;;;;;;;;;;;;;;;;;;2209334;67;1144;-20
2023/03/30 12:13:14;;;;;;;;;;;;;;;;;;2205832;67;1774;-20
2023/03/30 12:15:54;;;;;;;;;;;;;;;;;;2209516;67;1227;-20
2023/03/30 12:18:27;;;;;;;;;;;;;;;;;;2209779;67;1818;-20
2023/03/30 12:21:00;;;;;;;;;;;;;;;;;;2209038;67;1932;-20
2023/03/30 12:23:39;;;;;;;;;;;;;;;;;;2209593;59;1237;-20
2023/03/30 12:26:29;;;;;;;;;;;;;;;;;;2208447;67;1668;-20
2023/03/30 12:29:03;;;;;;;;;;;;;;;;;;2209475;67;1206;-20
2023/03/30 12:31:51;;;;;;;;;;;;;;;;;;2206011;67;1258;-19
2023/03/30 12:34:23;;;;;;;;;;;;;;;;;;2208250;67;1284;-20
2023/03/30 12:36:55;;;;;;;;;;;;;;;;;;2209397;67;1814;-20
2023/03/30 12:39:32;;;;;;;;;;;;;;;;;;2208703;67;1930;-19
2023/03/30 12:42:05;;;;;;;;;;;;;;;;;;2206028;59;1778;-20
2023/03/30 12:44:41;;;;;;;;;;;;;;;;;;2206333;67;1773;-20
2023/03/30 12:47:32;;;;;;;;;;;;;;;;;;2205216;67;1746;-20
2023/03/30 12:50:08;;;;;;;;;;;;;;;;;;2205309;67;1674;-20
2023/03/30 12:52:47;;;;;;;;;;;;;;;;;;2208766;67;1464;-20
2023/03/30 12:55:36;;;;;;;;;;;;;;;;;;2209928;67;1602;-22
2023/03/30 12:58:12;;;;;;;;;;;;;;;;;;2208832;67;1267;-21
2023/03/30 13:01:01;;;;;;;;;;;;;;;;;;2209496;67;1945;-21
2023/03/30 13:03:38;;;;;;;;;;;;;;;;;;2209556;67;1631;-21
2023/03/30 13:06:18;;;;;;;;;;;;;;;;;;2206150;67;1419;-20
2023/03/30 13:08:52;;;;;;;;;;;;;;;;;;2208734;67;1136;-21
2023/03/30 13:11:23;;;;;;;;;;;;;;;;;;2205356;67;1416;-20
2023/03/30 13:13:58;;;;;;;;;;;;;;;;;;2205987;67;1350;-20
2023/03/30 13:16:51;;;;;;;;;;;;;;;;;;2208869;67;1675;-20
2023/03/30 13:19:35;;;;;;;;;;;;;;;;;;2204702;67;2009;-20
2023/03/30 13:22:09;;;;;;;;;;;;;;;;;;2206032;59;1144;-20
2023/03/30 13:24:44;;;;;;;;;;;;;;;;;;2205797;67;1768;-20
2023/03/30 13:27:17;;;;;;;;;;;;;;;;;;2205717;67;1454;-20
2023/03/30 13:30:11;;;;;;;;;;;;;;;;;;2205903;67;1675;-20
2023/03/30 13:32:47;;;;;;;;;;;;;;;;;;2208279;67;1711;-20
2023/03/30 13:35:36;;;;;;;;;;;;;;;;;;2208824;67;1906;-20
2023/03/30 13:38:06;;;;;;;;;;;;;;;;;;2208848;67;1144;-19
2023/03/30 13:40:42;;;;;;;;;;;;;;;;;;2207548;67;1967;-20
2023/03/30 13:43:20;;;;;;;;;;;;;;;;;;2209722;67;1115;-20
2023/03/30 13:46:05;;;;;;;;;;;;;;;;;;2203376;67;1299;-19
2023/03/30 13:48:41;;;;;;;;;;;;;;;;;;2209427;67;1766;-20
2023/03/30 13:51:14;;;;;;;;;;;;;;;;;;2208869;67;1203;-19
2023/03/30 13:53:48;;;;;;;;;;;;;;;;;;2205563;67;1908;-20
2023/03/30 13:56:19;;;;;;;;;;;;;;;;;;2208726;67;1301;-19
2023/03/30 13:58:56;;;;;;;;;;;;;;;;;;2208775;67;1131;-21
2023/03/30 14:01:26;;;;;;;;;;;;;;;;;;2208648;67;1931;-19
2023/03/30 14:03:58;;;;;;;;;;;;;;;;;;2208908;67;1252;-19
2023/03/30 14:06:29;;;;;;;;;;;;;;;;;;2208216;67;1153;-19
2023/03/30 14:09:04;;;;;;;;;;;;;;;;;;2208958;67;1860;-20
2023/03/30 14:11:39;;;;;;;;;;;;;;;;;;2207992;67;1247;-20
2023/03/30 14:14:14;;;;;;;;;;;;;;;;;;2208564;67;1225;-22
2023/03/30 14:16:45;;;;;;;;;;;;;;;;;;2209116;67;1669;-21
2023/03/30 14:19:21;;;;;;;;;;;;;;;;;;2209079;67;2281;-22
2023/03/30 14:21:54;;;;;;;;;;;;;;;;;;2209046;59;1194;-21
2023/03/30 14:24:32;;;;;;;;;;;;;;;;;;2208344;67;1463;-22
2023/03/30 14:27:02;;;;;;;;;;;;;;;;;;2206649;67;1079;-21
2023/03/30 14:29:32;;;;;;;;;;;;;;;;;;2208870;67;1211;-22
2023/03/30 14:32:02;;;;;;;;;;;;;;;;;;2208117;67;1322;-21
2023/03/30 14:34:33;;;;;;;;;;;;;;;;;;2208719;67;1221;-22
2023/03/30 14:37:05;;;;;;;;;;;;;;;;;;2208693;67;1144;-21
2023/03/30 14:39:40;;;;;;;;;;;;;;;;;;2208460;67;1916;-22
2023/03/30 14:42:18;;;;;;;;;;;;;;;;;;2208696;67;1205;-22
2023/03/30 14:44:49;;;;;;;;;;;;;;;;;;2209138;67;1240;-21
2023/03/30 14:47:24;;;;;;;;;;;;;;;;;;2208273;67;1160;-21
2023/03/30 14:49:57;;;;;;;;;;;;;;;;;;2202803;67;1360;-21
2023/03/30 14:52:32;;;;;;;;;;;;;;;;;;2206079;67;1533;-22
2023/03/30 14:55:03;;;;;;;;;;;;;;;;;;2209231;67;1285;-21
2023/03/30 14:57:36;;;;;;;;;;;;;;;;;;2208467;67;1814;-21
2023/03/30 15:00:19;;;;;;;;;;;;;;;;;;2208299;67;1937;-21
2023/03/30 15:02:55;;;;;;;;;;;;;;;;;;2209990;67;1197;-22
2023/03/30 15:05:31;;;;;;;;;;;;;;;;;;2205953;67;1451;-21
2023/03/30 15:08:02;;;;;;;;;;;;;;;;;;2209796;67;1410;-21
2023/03/30 15:10:44;;;;;;;;;;;;;;;;;;2208603;67;1165;-20
2023/03/30 15:13:29;;;;;;;;;;;;;;;;;;2207543;59;1397;-21
2023/03/30 15:16:00;;;;;;;;;;;;;;;;;;2205706;67;1130;-19
2023/03/30 15:18:32;;;;;;;;;;;;;;;;;;2208642;67;1133;-19
2023/03/30 15:21:02;;;;;;;;;;;;;;;;;;2208223;67;1944;-19
2023/03/30 15:23:35;;;;;;;;;;;;;;;;;;2208101;59;1379;-19
2023/03/30 15:26:06;;;;;;;;;;;;;;;;;;2209096;67;1245;-19
2023/03/30 15:28:44;;;;;;;;;;;;;;;;;;2209213;67;1509;-19
2023/03/30 15:31:15;;;;;;;;;;;;;;;;;;2206233;67;1212;-19
2023/03/30 15:33:49;;;;;;;;;;;;;;;;;;2208510;67;1732;-19
2023/03/30 15:36:24;;;;;;;;;;;;;;;;;;2205604;67;1254;-19
2023/03/30 15:38:57;;;;;;;;;;;;;;;;;;2209506;67;1389;-20
2023/03/30 15:41:46;;;;;;;;;;;;;;;;;;2206341;67;2001;-19
2023/03/30 15:44:18;;;;;;;;;;;;;;;;;;2208790;67;1409;-19
2023/03/30 15:46:50;;;;;;;;;;;;;;;;;;2209274;59;1199;-19
2023/03/30 15:49:23;;;;;;;;;;;;;;;;;;2208724;67;1172;-19
2023/03/30 15:52:00;;;;;;;;;;;;;;;;;;2205537;67;1310;-19
2023/03/30 15:54:42;;;;;;;;;;;;;;;;;;2208891;67;1476;-19
2023/03/30 15:57:23;;;;;;;;;;;;;;;;;;2209830;59;1887;-19
2023/03/30 16:00:01;;;;;;;;;;;;;;;;;;2209376;67;1937;-19
2023/03/30 16:02:40;;;;;;;;;;;;;;;;;;2205513;67;1836;-19
2023/03/30 16:05:21;;;;;;;;;;;;;;;;;;2205079;67;1372;-19
2023/03/30 16:07:51;;;;;;;;;;;;;;;;;;2208706;67;1787;-18
2023/03/30 16:10:28;;;;;;;;;;;;;;;;;;2208530;67;1042;-19
2023/03/30 16:12:59;;;;;;;;;;;;;;;;;;2208049;67;1317;-19
2023/03/30 16:15:30;;;;;;;;;;;;;;;;;;2209322;67;1252;-18
2023/03/30 16:18:01;;;;;;;;;;;;;;;;;;2208783;67;1748;-18
2023/03/30 16:20:31;;;;;;;;;;;;;;;;;;2210040;67;1929;-18
2023/03/30 16:23:03;;;;;;;;;;;;;;;;;;2209058;59;1272;-18
2023/03/30 16:25:33;;;;;;;;;;;;;;;;;;2208396;67;1314;-18
2023/03/30 16:28:03;;;;;;;;;;;;;;;;;;2209037;67;1121;-19
2023/03/30 16:30:36;;;;;;;;;;;;;;;;;;2208407;67;1077;-18
2023/03/30 16:33:06;;;;;;;;;;;;;;;;;;2207568;67;1113;-18
2023/03/30 16:35:36;;;;;;;;;;;;;;;;;;2208957;67;1275;-19
2023/03/30 16:38:08;;;;;;;;;;;;;;;;;;2209429;67;1116;-18
2023/03/30 16:40:40;;;;;;;;;;;;;;;;;;2209342;67;2262;-18
2023/03/30 16:43:10;;;;;;;;;;;;;;;;;;2209429;67;2076;-18
2023/03/30 16:45:40;;;;;;;;;;;;;;;;;;2209258;67;1310;-18
2023/03/30 16:48:11;;;;;;;;;;;;;;;;;;2206679;67;1510;-19
2023/03/30 16:50:45;;;;;;;;;;;;;;;;;;2210120;59;1779;-18
2023/03/30 16:53:16;;;;;;;;;;;;;;;;;;2208586;67;1269;-18
2023/03/30 16:55:46;;;;;;;;;;;;;;;;;;2206880;59;2052;-18
2023/03/30 16:58:16;;;;;;;;;;;;;;;;;;2209089;59;2701;-18
2023/03/30 17:01:02;;;;;;;;;;;;;;;;;;2206579;67;1999;-19
2023/03/30 17:03:32;;;;;;;;;;;;;;;;;;2210061;67;1304;-18
2023/03/30 17:06:02;;;;;;;;;;;;;;;;;;2209342;60;1666;-20
2023/03/30 17:08:33;;;;;;;;;;;;;;;;;;2209161;67;1708;-21
2023/03/30 17:11:05;;;;;;;;;;;;;;;;;;2205485;59;1424;-21
2023/03/30 17:13:35;;;;;;;;;;;;;;;;;;2205567;67;1237;-20
2023/03/30 17:16:06;;;;;;;;;;;;;;;;;;2209716;59;1306;-21
2023/03/30 17:18:36;;;;;;;;;;;;;;;;;;2209393;67;1240;-20
2023/03/30 17:21:08;;;;;;;;;;;;;;;;;;2208403;67;1990;-20
2023/03/30 17:23:38;;;;;;;;;;;;;;;;;;2209887;59;1452;-19
2023/03/30 17:26:10;;;;;;;;;;;;;;;;;;2209590;59;1596;-22
2023/03/30 17:28:41;;;;;;;;;;;;;;;;;;2209619;67;1128;-20
2023/03/30 17:31:16;;;;;;;;;;;;;;;;;;2209188;67;1111;-20
2023/03/30 17:33:46;;;;;;;;;;;;;;;;;;2209353;67;1324;-18
2023/03/30 17:36:18;;;;;;;;;;;;;;;;;;2208872;67;1145;-19
2023/03/30 17:38:49;;;;;;;;;;;;;;;;;;2206920;67;1233;-19
2023/03/30 17:41:19;;;;;;;;;;;;;;;;;;2205332;67;1949;-19
2023/03/30 17:43:50;;;;;;;;;;;;;;;;;;2209653;67;1321;-20
2023/03/30 17:46:20;;;;;;;;;;;;;;;;;;2209551;67;1370;-19
2023/03/30 17:48:51;;;;;;;;;;;;;;;;;;2205999;67;1284;-20
2023/03/30 17:51:21;;;;;;;;;;;;;;;;;;2208800;67;1176;-19
2023/03/30 17:53:51;;;;;;;;;;;;;;;;;;2208957;67;1680;-19